Assaouas, Niger
Current Conditions -  °F | °C
As of 1:15 AM on Wednesday 26 Nov 2014 (Local Time) from KQAZ Reporting Station
Clear Clear  
Wind Chill: 64°   Ceiling: Unl
Heat Index: 64°   Visibility: 6mi
Dew Point: 32°   Wind: 2mph
Humidity: 30%   Direction: 110°ESE
Pressure: 29.98"   Gusts: NA
Location:  16.87°N, 7.45°E
Report Text: KQAZ 260015Z AUTO 11002KT 9999 CLR 18/00 A2998 RMK CDP03565 CLR
Loading
Personal Weather Stations






























Interactive Weather Map New forecast layout! Learn more

10-Day Weather Forecast

Advertisements
Track Severe Weather on mobile